createdAt,value
2022-08-24T00:00:21.727Z,18.79
2022-08-24T00:03:03.748Z,18.74
2022-08-24T00:05:30.870Z,18.72
2022-08-24T00:07:57.953Z,18.67
2022-08-24T00:10:26.661Z,18.65
2022-08-24T00:12:53.858Z,18.62
2022-08-24T00:15:21.165Z,18.60
2022-08-24T00:17:47.983Z,18.57
2022-08-24T00:20:14.854Z,18.50
2022-08-24T00:22:42.067Z,18.49
2022-08-24T00:25:11.453Z,18.48
2022-08-24T00:27:39.328Z,18.40
2022-08-24T00:30:08.975Z,18.43
2022-08-24T00:32:37.835Z,18.42
2022-08-24T00:35:09.138Z,18.42
2022-08-24T00:37:37.117Z,18.43
2022-08-24T00:40:15.715Z,18.39
2022-08-24T00:42:43.328Z,18.34
2022-08-24T00:45:12.412Z,18.30
2022-08-24T00:47:47.779Z,18.25
2022-08-24T00:50:23.103Z,18.24
2022-08-24T00:52:56.566Z,18.22
2022-08-24T00:55:30.743Z,18.19
2022-08-24T00:58:02.321Z,18.16
2022-08-24T01:00:37.120Z,18.15
2022-08-24T01:03:06.969Z,18.18
2022-08-24T01:05:37.043Z,18.16
2022-08-24T01:08:06.281Z,18.10
2022-08-24T01:10:37.942Z,18.06
2022-08-24T01:13:08.472Z,18.03
2022-08-24T01:15:40.039Z,18.04
2022-08-24T01:18:29.604Z,18.02
2022-08-24T01:21:03.703Z,17.96
2022-08-24T01:23:41.752Z,17.94
2022-08-24T01:26:11.979Z,17.93
2022-08-24T01:28:44.262Z,17.91
2022-08-24T01:31:12.125Z,17.91
2022-08-24T01:33:39.623Z,17.91
2022-08-24T01:36:28.811Z,17.86
2022-08-24T01:38:58.943Z,17.83
2022-08-24T01:41:29.070Z,17.78
2022-08-24T01:43:58.221Z,17.74
2022-08-24T01:46:25.848Z,17.70
2022-08-24T01:48:53.341Z,17.65
2022-08-24T01:51:21.305Z,17.62
2022-08-24T01:53:48.547Z,17.58
2022-08-24T01:56:15.622Z,17.54
2022-08-24T01:58:47.886Z,17.53
2022-08-24T02:01:17.815Z,17.48
2022-08-24T02:03:44.986Z,17.47
2022-08-24T02:06:11.893Z,17.47
2022-08-24T02:08:38.685Z,17.46
2022-08-24T02:11:09.212Z,17.47
2022-08-24T02:13:38.384Z,17.48
2022-08-24T02:16:07.091Z,17.51
2022-08-24T02:18:36.378Z,17.55
2022-08-24T02:21:03.357Z,17.55
2022-08-24T02:23:30.258Z,17.51
2022-08-24T02:25:57.340Z,17.51
2022-08-24T02:28:24.633Z,17.51
2022-08-24T02:30:51.526Z,17.49
2022-08-24T02:33:18.654Z,17.45
2022-08-24T02:35:45.879Z,17.45
2022-08-24T02:38:12.766Z,17.44
2022-08-24T02:43:21.937Z,17.42
2022-08-24T02:45:50.489Z,17.40
2022-08-24T02:48:18.512Z,17.37
2022-08-24T02:50:47.974Z,17.36
2022-08-24T02:53:16.917Z,17.35
2022-08-24T02:55:44.459Z,17.34
2022-08-24T02:58:12.840Z,17.33
2022-08-24T03:00:41.568Z,17.27
2022-08-24T03:03:09.462Z,17.21
2022-08-24T03:05:36.376Z,17.19
2022-08-24T03:08:04.577Z,17.18
2022-08-24T03:10:31.738Z,17.17
2022-08-24T03:13:01.483Z,17.18
2022-08-24T03:15:30.037Z,17.19
2022-08-24T03:17:57.067Z,17.15
2022-08-24T03:20:25.019Z,17.14
2022-08-24T03:22:52.547Z,17.14
2022-08-24T03:25:20.602Z,17.13
2022-08-24T03:27:47.564Z,17.07
2022-08-24T03:30:15.525Z,17.03
2022-08-24T03:32:43.598Z,17.00
2022-08-24T03:35:12.427Z,16.98
2022-08-24T03:37:39.988Z,17.01
2022-08-24T03:40:22.132Z,17.00
2022-08-24T03:42:51.130Z,16.99
2022-08-24T03:45:19.047Z,17.01
2022-08-24T03:47:46.469Z,17.04
2022-08-24T03:50:14.134Z,17.08
2022-08-24T03:52:41.970Z,17.14
2022-08-24T03:55:09.439Z,17.17
2022-08-24T03:57:36.553Z,17.17
2022-08-24T04:00:07.739Z,17.17
2022-08-24T04:02:34.565Z,17.17
2022-08-24T04:05:02.044Z,17.18
2022-08-24T04:07:28.894Z,17.23
2022-08-24T04:09:55.641Z,17.25
2022-08-24T04:12:23.414Z,17.31
2022-08-24T04:14:55.929Z,17.36
2022-08-24T04:17:22.998Z,17.45
2022-08-24T04:19:58.766Z,17.51
2022-08-24T04:22:30.927Z,17.56
2022-08-24T04:24:57.951Z,17.67
2022-08-24T04:27:24.890Z,17.80
2022-08-24T04:29:52.062Z,17.96
2022-08-24T04:32:19.323Z,18.07
2022-08-24T04:34:47.158Z,18.16
2022-08-24T04:37:14.815Z,18.26
2022-08-24T04:39:42.231Z,18.40
2022-08-24T04:42:09.681Z,18.53
2022-08-24T04:44:36.735Z,18.65
2022-08-24T04:47:05.603Z,18.80
2022-08-24T04:49:33.600Z,18.95
2022-08-24T04:52:01.468Z,19.07
2022-08-24T04:54:28.351Z,19.23
2022-08-24T04:56:55.200Z,19.37
2022-08-24T04:59:22.218Z,19.51
2022-08-24T05:01:49.051Z,19.64
2022-08-24T05:04:16.048Z,19.80
2022-08-24T05:06:43.211Z,19.95
2022-08-24T05:09:10.219Z,20.15
2022-08-24T05:11:40.044Z,20.44
2022-08-24T05:14:07.880Z,20.72
2022-08-24T05:16:38.203Z,21.02
2022-08-24T05:19:07.223Z,21.34
2022-08-24T05:21:34.690Z,21.70
2022-08-24T05:24:01.622Z,22.01
2022-08-24T05:26:31.151Z,22.30
2022-08-24T05:29:01.054Z,22.68
2022-08-24T05:31:31.007Z,22.97
2022-08-24T05:33:59.426Z,23.22
2022-08-24T05:36:35.702Z,23.48
2022-08-24T05:39:11.002Z,23.83
2022-08-24T05:41:44.340Z,24.22
2022-08-24T05:44:15.669Z,24.63
2022-08-24T05:46:43.764Z,25.03
2022-08-24T05:49:10.693Z,25.48
2022-08-24T05:51:38.886Z,25.89
2022-08-24T05:54:06.461Z,26.22
2022-08-24T05:56:33.306Z,26.61
2022-08-24T05:59:00.207Z,26.96
2022-08-24T06:01:28.149Z,27.37
2022-08-24T06:03:56.311Z,27.66
2022-08-24T06:06:24.605Z,27.87
2022-08-24T06:08:55.198Z,28.00
2022-08-24T06:11:30.908Z,28.16
2022-08-24T06:14:02.653Z,28.18
2022-08-24T06:16:36.208Z,28.15
2022-08-24T06:19:05.030Z,28.12
2022-08-24T06:21:32.676Z,28.04
2022-08-24T06:24:00.290Z,28.15
2022-08-24T06:26:49.913Z,28.37
2022-08-24T06:29:18.982Z,28.87
2022-08-24T06:31:49.324Z,29.28
2022-08-24T06:34:24.126Z,29.63
2022-08-24T06:36:51.166Z,29.64
2022-08-24T06:39:18.975Z,29.78
2022-08-24T06:41:45.827Z,30.01
2022-08-24T06:44:12.890Z,30.21
2022-08-24T06:46:39.878Z,30.34
2022-08-24T06:49:06.748Z,30.75
2022-08-24T06:51:33.860Z,31.31
2022-08-24T06:54:00.756Z,31.94
2022-08-24T06:56:27.578Z,32.47
2022-08-24T06:58:55.577Z,32.55
2022-08-24T07:01:25.864Z,32.86
2022-08-24T07:03:53.666Z,33.30
2022-08-24T07:06:22.384Z,33.69
2022-08-24T07:08:49.513Z,33.95
2022-08-24T07:11:18.971Z,34.61
2022-08-24T07:13:47.515Z,35.01
2022-08-24T07:16:16.077Z,35.41
2022-08-24T07:18:45.019Z,35.71
2022-08-24T07:21:14.540Z,35.80
2022-08-24T07:23:42.865Z,35.82
2022-08-24T07:26:15.161Z,35.35
2022-08-24T07:28:48.800Z,35.74
2022-08-24T07:31:15.945Z,36.20
2022-08-24T07:33:42.834Z,36.43
2022-08-24T07:36:09.941Z,36.69
2022-08-24T07:38:39.591Z,37.18
2022-08-24T07:41:33.731Z,37.70
2022-08-24T07:43:55.211Z,38.19
2022-08-24T07:46:22.443Z,38.60
2022-08-24T07:48:56.163Z,38.97
2022-08-24T07:54:02.510Z,39.69
2022-08-24T07:56:31.905Z,39.95
2022-08-24T07:58:58.992Z,40.09
2022-08-24T08:01:25.975Z,40.18
2022-08-24T08:03:53.025Z,40.33
2022-08-24T08:06:20.119Z,40.54
2022-08-24T08:08:46.983Z,40.80
2022-08-24T08:11:13.875Z,40.91
2022-08-24T08:16:08.951Z,40.93
2022-08-24T08:18:36.086Z,41.42
2022-08-24T08:21:05.115Z,41.77
2022-08-24T08:23:50.386Z,41.61
2022-08-24T08:26:22.009Z,41.65
2022-08-24T08:28:48.861Z,41.86
2022-08-24T08:31:15.787Z,42.22
2022-08-24T08:33:43.031Z,42.35
2022-08-24T08:36:15.121Z,42.36
2022-08-24T08:38:43.058Z,42.28
2022-08-24T08:41:17.816Z,42.34
2022-08-24T08:43:52.657Z,42.46
2022-08-24T08:46:42.285Z,42.62
2022-08-24T08:49:39.358Z,42.59
2022-08-24T08:52:06.307Z,42.44
2022-08-24T08:54:56.186Z,42.80
2022-08-24T08:57:23.438Z,43.05
2022-08-24T09:00:19.686Z,42.17
2022-08-24T09:03:17.626Z,41.49
2022-08-24T09:05:59.799Z,41.10
2022-08-24T09:08:52.097Z,41.05
2022-08-24T09:11:27.831Z,41.40
2022-08-24T09:14:26.073Z,41.13
2022-08-24T09:17:22.307Z,41.28
2022-08-24T09:20:23.131Z,40.70
2022-08-24T09:23:18.309Z,40.59
2022-08-24T09:26:08.157Z,40.83
2022-08-24T09:28:53.520Z,41.01
2022-08-24T09:31:39.365Z,40.27
2022-08-24T09:34:08.824Z,39.62
2022-08-24T09:36:53.303Z,38.72
2022-08-24T09:39:53.977Z,38.16
2022-08-24T09:42:58.771Z,38.07
2022-08-24T09:45:44.560Z,37.81
2022-08-24T09:48:48.963Z,37.55
2022-08-24T09:51:40.353Z,37.02
2022-08-24T09:54:10.366Z,36.96
2022-08-24T09:56:59.819Z,36.66
2022-08-24T10:00:18.517Z,36.11
2022-08-24T10:03:15.698Z,35.63
2022-08-24T10:05:56.420Z,35.30
2022-08-24T10:08:47.272Z,34.35
2022-08-24T10:11:27.149Z,33.71
2022-08-24T10:14:12.205Z,33.08
2022-08-24T10:17:04.755Z,32.73
2022-08-24T10:20:03.988Z,32.13
2022-08-24T10:23:08.850Z,31.45
2022-08-24T10:25:36.080Z,30.91
2022-08-24T10:28:21.959Z,30.43
2022-08-24T10:31:01.742Z,30.34
2022-08-24T10:33:57.688Z,30.20
2022-08-24T10:36:36.682Z,30.05
2022-08-24T10:39:41.631Z,29.81
2022-08-24T10:43:07.694Z,29.67
2022-08-24T10:45:52.551Z,29.66
2022-08-24T10:48:33.011Z,29.51
2022-08-24T10:51:20.006Z,29.52
2022-08-24T10:53:52.959Z,29.84
2022-08-24T10:56:41.483Z,30.07
2022-08-24T10:59:23.444Z,30.14
2022-08-24T11:02:12.332Z,30.13
2022-08-24T11:04:40.380Z,30.19
2022-08-24T11:07:10.026Z,30.26
2022-08-24T11:09:53.561Z,30.33
2022-08-24T11:12:26.430Z,30.55
2022-08-24T11:14:57.811Z,30.88
2022-08-24T11:17:28.693Z,31.28
2022-08-24T11:19:57.270Z,31.79
2022-08-24T11:22:27.511Z,32.39
2022-08-24T11:24:59.894Z,32.39
2022-08-24T11:27:35.430Z,32.20
2022-08-24T11:30:17.651Z,31.78
2022-08-24T11:32:53.639Z,31.65
2022-08-24T11:35:31.721Z,31.68
2022-08-24T11:38:16.087Z,31.96
2022-08-24T11:40:53.360Z,32.23
2022-08-24T11:43:31.092Z,32.59
2022-08-24T11:46:06.812Z,33.00
2022-08-24T11:48:47.691Z,33.15
2022-08-24T11:51:38.391Z,33.36
2022-08-24T11:54:22.149Z,33.85
2022-08-24T11:57:08.495Z,34.45
2022-08-24T12:00:00.253Z,34.58
2022-08-24T12:02:36.344Z,34.56
2022-08-24T12:05:24.916Z,34.08
2022-08-24T12:08:10.336Z,33.87
2022-08-24T12:10:58.691Z,33.91
2022-08-24T12:13:50.315Z,33.67
2022-08-24T12:16:29.038Z,33.21
2022-08-24T12:19:19.918Z,32.89
2022-08-24T12:21:50.885Z,32.73
2022-08-24T12:24:32.573Z,32.43
2022-08-24T12:27:13.430Z,32.04
2022-08-24T12:30:01.425Z,31.65
2022-08-24T12:33:08.391Z,31.86
2022-08-24T12:35:42.602Z,32.56
2022-08-24T12:38:17.379Z,32.84
2022-08-24T12:41:14.637Z,33.28
2022-08-24T12:44:16.963Z,33.34
2022-08-24T12:46:44.821Z,33.31
2022-08-24T12:49:24.091Z,33.50
2022-08-24T12:52:03.092Z,33.87
2022-08-24T12:55:07.351Z,33.87
2022-08-24T12:58:03.877Z,33.54
2022-08-24T13:00:51.397Z,33.11
2022-08-24T13:03:35.367Z,32.81
2022-08-24T13:06:07.335Z,32.59
2022-08-24T13:08:41.519Z,32.36
2022-08-24T13:11:23.836Z,32.15
2022-08-24T13:13:57.410Z,31.86
2022-08-24T13:16:45.815Z,31.48
2022-08-24T13:19:16.298Z,31.25
2022-08-24T13:21:48.065Z,31.21
2022-08-24T13:24:30.438Z,31.22
2022-08-24T13:27:13.166Z,31.27
2022-08-24T13:29:44.799Z,31.37
2022-08-24T13:32:31.482Z,31.43
2022-08-24T13:34:59.287Z,31.45
2022-08-24T13:37:28.624Z,31.45
2022-08-24T13:39:55.797Z,31.32
2022-08-24T13:42:43.708Z,31.15
2022-08-24T13:45:16.631Z,30.93
2022-08-24T13:48:10.065Z,30.72
2022-08-24T13:50:43.497Z,30.48
2022-08-24T13:53:28.899Z,30.38
2022-08-24T13:56:18.647Z,30.27
2022-08-24T13:59:24.732Z,30.25
2022-08-24T14:02:10.003Z,30.20
2022-08-24T14:04:55.438Z,30.18
2022-08-24T14:07:31.283Z,30.10
2022-08-24T14:10:10.809Z,30.04
2022-08-24T14:13:04.364Z,30.01
2022-08-24T14:15:48.703Z,30.08
2022-08-24T14:18:52.435Z,30.12
2022-08-24T14:21:25.076Z,30.11
2022-08-24T14:24:18.743Z,30.10
2022-08-24T14:26:48.741Z,30.08
2022-08-24T14:29:17.874Z,30.00
2022-08-24T14:31:58.615Z,29.98
2022-08-24T14:34:42.541Z,29.99
2022-08-24T14:37:16.492Z,29.98
2022-08-24T14:40:03.683Z,29.92
2022-08-24T14:42:37.370Z,29.91
2022-08-24T14:45:42.773Z,29.74
2022-08-24T14:48:22.258Z,29.65
2022-08-24T14:51:07.987Z,29.59
2022-08-24T14:53:46.535Z,29.55
2022-08-24T14:56:25.789Z,29.45
2022-08-24T14:59:20.650Z,29.39
2022-08-24T15:01:51.227Z,29.39
2022-08-24T15:04:41.161Z,29.38
2022-08-24T15:07:36.523Z,29.43
2022-08-24T15:10:14.920Z,29.51
2022-08-24T15:12:48.928Z,29.50
2022-08-24T15:15:15.708Z,29.43
2022-08-24T15:17:50.207Z,29.33
2022-08-24T15:20:42.409Z,29.23
2022-08-24T15:23:25.523Z,29.17
2022-08-24T15:26:02.577Z,29.11
2022-08-24T15:28:32.653Z,29.05
2022-08-24T15:31:01.530Z,29.01
2022-08-24T15:33:30.462Z,28.96
2022-08-24T15:36:12.957Z,28.92
2022-08-24T15:38:41.759Z,28.86
2022-08-24T15:41:14.283Z,28.76
2022-08-24T15:44:10.620Z,28.62
2022-08-24T15:46:42.865Z,28.54
2022-08-24T15:49:22.786Z,28.47
2022-08-24T15:51:58.033Z,28.41
2022-08-24T15:54:30.667Z,28.37
2022-08-24T15:57:23.735Z,28.31
2022-08-24T15:59:54.724Z,28.25
2022-08-24T16:02:34.075Z,28.16
2022-08-24T16:05:13.157Z,28.05
2022-08-24T16:08:03.714Z,27.93
2022-08-24T16:10:50.877Z,27.83
2022-08-24T16:13:17.611Z,27.67
2022-08-24T16:16:00.080Z,27.51
2022-08-24T16:18:49.882Z,27.41
2022-08-24T16:21:35.251Z,27.28
2022-08-24T16:24:06.552Z,27.23
2022-08-24T16:26:37.580Z,27.16
2022-08-24T16:29:05.568Z,27.11
2022-08-24T16:31:52.005Z,27.03
2022-08-24T16:34:35.273Z,27.01
2022-08-24T16:37:03.665Z,26.96
2022-08-24T16:39:31.417Z,26.89
2022-08-24T16:42:03.619Z,26.82
2022-08-24T16:44:36.042Z,26.76
2022-08-24T16:47:03.536Z,26.67
2022-08-24T16:49:31.842Z,26.60
2022-08-24T16:51:59.176Z,26.50
2022-08-24T16:54:26.533Z,26.36
2022-08-24T16:56:54.139Z,26.17
2022-08-24T16:59:27.308Z,25.90
2022-08-24T17:01:54.397Z,25.73
2022-08-24T17:04:21.278Z,25.63
2022-08-24T17:06:50.889Z,25.55
2022-08-24T17:09:19.615Z,25.43
2022-08-24T17:11:47.189Z,25.27
2022-08-24T17:14:15.156Z,25.15
2022-08-24T17:16:42.751Z,24.99
2022-08-24T17:19:13.899Z,24.85
2022-08-24T17:21:41.279Z,24.66
2022-08-24T17:24:10.240Z,24.46
2022-08-24T17:26:37.943Z,24.31
2022-08-24T17:29:13.517Z,24.12
2022-08-24T17:31:47.147Z,24.03
2022-08-24T17:34:14.587Z,23.93
2022-08-24T17:36:44.945Z,23.85
2022-08-24T17:39:14.006Z,23.79
2022-08-24T17:41:41.150Z,23.71
2022-08-24T17:44:13.746Z,23.67
2022-08-24T17:46:41.447Z,23.56
2022-08-24T17:49:11.758Z,23.51
2022-08-24T17:51:38.870Z,23.40
2022-08-24T17:54:08.029Z,23.27
2022-08-24T17:56:40.849Z,23.16
2022-08-24T17:59:25.557Z,23.08
2022-08-24T18:01:55.746Z,23.03
2022-08-24T18:04:26.146Z,22.97
2022-08-24T18:06:55.745Z,22.92
2022-08-24T18:09:26.920Z,22.79
2022-08-24T18:11:54.212Z,22.73
2022-08-24T18:14:21.359Z,22.63
2022-08-24T18:16:54.117Z,22.46
2022-08-24T18:19:25.292Z,22.36
2022-08-24T18:21:52.260Z,22.31
2022-08-24T18:24:19.307Z,22.23
2022-08-24T18:26:48.584Z,22.17
2022-08-24T18:29:19.017Z,22.09
2022-08-24T18:31:48.590Z,22.00
2022-08-24T18:34:20.202Z,21.95
2022-08-24T18:36:47.869Z,21.87
2022-08-24T18:39:14.968Z,21.81
2022-08-24T18:41:44.436Z,21.75
2022-08-24T18:44:22.291Z,21.66
2022-08-24T18:46:49.555Z,21.58
2022-08-24T18:49:17.693Z,21.51
2022-08-24T18:51:48.165Z,21.44
2022-08-24T18:54:21.787Z,21.38
2022-08-24T18:56:49.788Z,21.33
2022-08-24T18:59:19.438Z,21.24
2022-08-24T19:02:10.185Z,21.13
2022-08-24T19:04:45.732Z,21.05
2022-08-24T19:07:13.723Z,21.03
2022-08-24T19:09:40.933Z,20.96
2022-08-24T19:12:08.704Z,20.95
2022-08-24T19:14:36.232Z,20.87
2022-08-24T19:17:04.441Z,20.84
2022-08-24T19:19:31.333Z,20.77
2022-08-24T19:21:59.059Z,20.70
2022-08-24T19:24:28.936Z,20.63
2022-08-24T19:26:56.173Z,20.63
2022-08-24T19:29:53.932Z,20.56
2022-08-24T19:34:51.637Z,20.50
2022-08-24T19:37:19.296Z,20.46
2022-08-24T19:39:47.820Z,20.41
2022-08-24T19:42:16.780Z,20.34
2022-08-24T19:45:02.515Z,20.28
2022-08-24T19:47:34.702Z,20.23
2022-08-24T19:50:08.348Z,20.19
2022-08-24T19:52:36.187Z,20.15
2022-08-24T19:55:05.368Z,20.12
2022-08-24T19:57:36.159Z,20.02
2022-08-24T20:00:21.659Z,19.98
2022-08-24T20:02:52.029Z,19.97
2022-08-24T20:05:21.243Z,19.92
2022-08-24T20:07:49.411Z,19.88
2022-08-24T20:10:20.109Z,19.87
2022-08-24T20:12:47.390Z,19.80
2022-08-24T20:15:14.622Z,19.80
2022-08-24T20:17:41.822Z,19.76
2022-08-24T20:20:11.307Z,19.73
2022-08-24T20:22:38.339Z,19.65
2022-08-24T20:25:06.291Z,19.62
2022-08-24T20:27:33.541Z,19.57
2022-08-24T20:30:01.083Z,19.52
2022-08-24T20:32:29.551Z,19.46
2022-08-24T20:34:56.845Z,19.42
2022-08-24T20:37:26.628Z,19.39
2022-08-24T20:39:55.490Z,19.34
2022-08-24T20:42:23.240Z,19.24
2022-08-24T20:44:50.455Z,19.27
2022-08-24T20:47:17.963Z,19.26
2022-08-24T20:49:45.596Z,19.26
2022-08-24T20:52:12.905Z,19.25
2022-08-24T20:54:40.868Z,19.21
2022-08-24T20:57:11.548Z,19.18
2022-08-24T20:59:38.468Z,19.18
2022-08-24T21:02:05.515Z,19.14
2022-08-24T21:04:32.659Z,19.10
2022-08-24T21:06:59.528Z,19.03
2022-08-24T21:09:26.491Z,18.97
2022-08-24T21:11:53.549Z,18.92
2022-08-24T21:14:21.305Z,18.86
2022-08-24T21:16:48.243Z,18.80
2022-08-24T21:19:18.638Z,18.72
2022-08-24T21:21:47.136Z,18.66
2022-08-24T21:24:15.593Z,18.63
2022-08-24T21:26:43.174Z,18.60
2022-08-24T21:29:10.637Z,18.56
2022-08-24T21:31:38.231Z,18.56
2022-08-24T21:34:24.346Z,18.51
2022-08-24T21:36:52.693Z,18.48
2022-08-24T21:39:21.347Z,18.45
2022-08-24T21:41:48.300Z,18.42
2022-08-24T21:44:15.172Z,18.41
2022-08-24T21:46:42.336Z,18.40
2022-08-24T21:49:11.923Z,18.34
2022-08-24T21:51:40.138Z,18.32
2022-08-24T21:54:07.510Z,18.28
2022-08-24T21:56:34.634Z,18.27
2022-08-24T21:59:01.677Z,18.23
2022-08-24T22:01:29.118Z,18.22
2022-08-24T22:03:58.325Z,18.19
2022-08-24T22:06:31.074Z,18.16
2022-08-24T22:08:59.986Z,18.12
2022-08-24T22:11:27.872Z,18.10
2022-08-24T22:13:54.831Z,18.09
2022-08-24T22:16:22.685Z,18.06
2022-08-24T22:18:49.737Z,18.05
2022-08-24T22:21:22.209Z,18.02
2022-08-24T22:23:49.993Z,17.96
2022-08-24T22:26:17.012Z,17.93
2022-08-24T22:28:43.935Z,17.85
2022-08-24T22:31:24.373Z,17.83
2022-08-24T22:33:51.639Z,17.82
2022-08-24T22:36:19.035Z,17.81
2022-08-24T22:38:46.235Z,17.78
2022-08-24T22:41:14.473Z,17.72
2022-08-24T22:44:00.889Z,17.67
2022-08-24T22:46:28.667Z,17.63
2022-08-24T22:48:55.999Z,17.64
2022-08-24T22:51:22.990Z,17.63
2022-08-24T22:53:49.986Z,17.61
2022-08-24T22:56:22.167Z,17.60
2022-08-24T22:58:49.531Z,17.57
2022-08-24T23:01:26.215Z,17.55
2022-08-24T23:03:55.529Z,17.56
2022-08-24T23:06:23.293Z,17.52
2022-08-24T23:08:51.020Z,17.45
2022-08-24T23:11:19.343Z,17.39
2022-08-24T23:13:46.206Z,17.34
2022-08-24T23:16:13.782Z,17.31
2022-08-24T23:19:00.081Z,17.30
2022-08-24T23:21:27.681Z,17.25
2022-08-24T23:23:55.153Z,17.21
2022-08-24T23:26:22.317Z,17.17
2022-08-24T23:28:49.450Z,17.14
2022-08-24T23:31:19.930Z,17.07
2022-08-24T23:33:47.001Z,16.99
2022-08-24T23:36:23.613Z,17.01
2022-08-24T23:38:53.941Z,17.00
2022-08-24T23:41:26.253Z,16.99
2022-08-24T23:43:54.380Z,16.99
2022-08-24T23:46:22.350Z,16.95
2022-08-24T23:48:55.298Z,16.90
2022-08-24T23:51:23.997Z,16.86
2022-08-24T23:53:52.182Z,16.82
2022-08-24T23:56:31.520Z,16.81
2022-08-24T23:59:02.701Z,16.81
